Time;durP1;ratioP1;P1;durP2;ratioP2;P2;SDS_P1;SDS_P2;PMS_P1;PMS_P2;Temp;Humidity;BMP_temperature;BMP_pressure;BME280_temperature;BME280_humidity;BME280_pressure;Samples;Min_cycle;Max_cycle;Signal;HPM_P1;HPM_P2
2022/11/17 00:01:44;;;;;;;0.90;0.90;;;-0.80;99.90;;;;;;5116675;28;20196;-77
2022/11/17 00:04:10;;;;;;;0.73;0.73;;;-0.80;99.90;;;;;;5098985;28;20191;-78
2022/11/17 00:06:36;;;;;;;0.60;0.60;;;-0.70;99.90;;;;;;5099390;28;20557;-78
2022/11/17 00:09:02;;;;;;;0.63;0.63;;;-0.60;99.90;;;;;;5117417;28;20188;-78
2022/11/17 00:14:31;;;;;;;0.63;0.63;;;-0.50;99.90;;;;;;5082118;28;20207;-78
2022/11/17 00:14:31;;;;;;;0.70;0.70;;;-0.50;99.90;;;;;;5096889;28;20678;-79
2022/11/17 00:16:57;;;;;;;0.70;0.70;;;-0.40;99.90;;;;;;5078603;28;20629;-78
2022/11/17 00:22:07;;;;;;;0.70;0.70;;;-0.40;99.90;;;;;;5076655;28;20219;-78
2022/11/17 00:24:33;;;;;;;0.60;0.60;;;-0.40;99.90;;;;;;5057885;28;20687;-79
2022/11/17 00:27:01;;;;;;;0.70;0.70;;;-0.40;99.90;;;;;;5076130;28;20200;-78
2022/11/17 00:29:28;;;;;;;0.60;0.60;;;-0.30;99.90;;;;;;5052096;28;20189;-78
2022/11/17 00:34:41;;;;;;;0.60;0.60;;;-0.30;99.90;;;;;;5055548;28;20197;-79
2022/11/17 00:37:08;;;;;;;0.55;0.55;;;-0.30;99.90;;;;;;5041300;28;20198;-79
2022/11/17 00:39:34;;;;;;;0.70;0.70;;;-0.30;99.90;;;;;;5037687;28;20209;-80
2022/11/17 00:42:00;;;;;;;0.60;0.60;;;-0.30;99.90;;;;;;5056183;28;20542;-80
2022/11/17 00:44:26;;;;;;;0.55;0.55;;;-0.30;99.90;;;;;;5041194;28;20185;-80
2022/11/17 00:46:52;;;;;;;0.60;0.60;;;-0.30;99.90;;;;;;5056936;28;20193;-80
2022/11/17 00:49:27;;;;;;;0.70;0.70;;;-0.30;99.90;;;;;;5057215;28;20232;-79
2022/11/17 00:51:55;;;;;;;0.60;0.60;;;-0.30;99.90;;;;;;5057589;28;20675;-80
2022/11/17 00:54:21;;;;;;;0.57;0.57;;;-0.30;99.90;;;;;;5058192;28;20715;-80
2022/11/17 00:56:47;;;;;;;0.57;0.57;;;-0.30;99.90;;;;;;5057690;28;20192;-80
2022/11/17 00:59:16;;;;;;;0.50;0.50;;;-0.30;99.90;;;;;;5075640;28;20209;-80
2022/11/17 01:01:42;;;;;;;0.60;0.60;;;-0.20;99.90;;;;;;5057360;28;20192;-80
2022/11/17 01:04:08;;;;;;;0.60;0.60;;;-0.20;99.90;;;;;;5075130;28;20557;-80
2022/11/17 01:06:37;;;;;;;0.50;0.50;;;-0.20;99.90;;;;;;5049254;28;20205;-80
2022/11/17 01:09:06;;;;;;;0.63;0.63;;;-0.10;99.90;;;;;;5037796;28;20719;-80
2022/11/17 01:11:32;;;;;;;0.65;0.65;;;-0.10;99.90;;;;;;5055846;28;20558;-81
2022/11/17 01:14:00;;;;;;;0.68;0.68;;;0.00;99.90;;;;;;5037492;28;20197;-80
2022/11/17 01:16:28;;;;;;;0.60;0.60;;;0.00;99.90;;;;;;5036969;28;20247;-80
2022/11/17 01:18:53;;;;;;;0.60;0.60;;;0.00;99.90;;;;;;5036765;28;20288;-80
2022/11/17 01:21:27;;;;;;;0.70;0.70;;;0.10;99.90;;;;;;5050461;28;20311;-80
2022/11/17 01:23:56;;;;;;;0.70;0.70;;;0.10;99.90;;;;;;5056412;28;20189;-78
2022/11/17 01:26:34;;;;;;;0.70;0.70;;;0.10;99.90;;;;;;5055962;28;20192;-79
2022/11/17 01:29:02;;;;;;;0.70;0.70;;;0.20;99.90;;;;;;5056364;28;20204;-80
2022/11/17 01:31:30;;;;;;;0.50;0.50;;;0.20;99.90;;;;;;5057014;28;20193;-79
2022/11/17 01:33:57;;;;;;;0.60;0.60;;;0.20;99.90;;;;;;5074694;28;20275;-78
2022/11/17 01:36:29;;;;;;;0.50;0.50;;;0.20;99.90;;;;;;5056802;28;20685;-80
2022/11/17 01:38:55;;;;;;;0.40;0.40;;;0.20;99.90;;;;;;5073535;28;20199;-79
2022/11/17 01:41:25;;;;;;;0.65;0.65;;;0.20;99.90;;;;;;5083600;28;20202;-81
2022/11/17 01:44:18;;;;;;;0.60;0.60;;;0.20;99.90;;;;;;5076277;28;20249;-81
2022/11/17 01:46:44;;;;;;;0.60;0.60;;;0.30;99.90;;;;;;5074677;28;20613;-80
2022/11/17 01:49:17;;;;;;;0.60;0.60;;;0.30;99.90;;;;;;5074438;28;20200;-78
2022/11/17 01:51:50;;;;;;;0.60;0.60;;;0.30;99.90;;;;;;5056081;28;20204;-79
2022/11/17 01:54:19;;;;;;;0.63;0.63;;;0.30;99.90;;;;;;5055833;28;20208;-80
2022/11/17 01:56:48;;;;;;;0.60;0.60;;;0.30;99.90;;;;;;5070211;28;20274;-80
2022/11/17 01:59:22;;;;;;;0.52;0.52;;;0.30;99.90;;;;;;5076941;28;20788;-80
2022/11/17 02:01:55;;;;;;;0.40;0.40;;;0.30;99.90;;;;;;5077829;28;20241;-80
2022/11/17 02:04:22;;;;;;;0.50;0.50;;;0.30;99.90;;;;;;5073052;28;20201;-80
2022/11/17 02:06:51;;;;;;;0.75;0.75;;;0.30;99.90;;;;;;5073930;28;20193;-79
2022/11/17 02:09:17;;;;;;;0.60;0.60;;;0.30;99.90;;;;;;5073823;28;20249;-80
2022/11/17 02:11:44;;;;;;;0.60;0.60;;;0.30;99.90;;;;;;5074577;28;20628;-79
2022/11/17 02:14:10;;;;;;;0.52;0.52;;;0.20;99.90;;;;;;5040574;28;20205;-79
2022/11/17 02:16:36;;;;;;;0.70;0.70;;;0.20;99.90;;;;;;5074543;28;20209;-79
2022/11/17 02:19:01;;;;;;;0.70;0.70;;;0.20;99.90;;;;;;5073690;28;20197;-80
2022/11/17 02:21:55;;;;;;;0.60;0.60;;;0.20;99.90;;;;;;5063557;28;20255;-80
2022/11/17 02:24:39;;;;;;;0.70;0.70;;;0.20;99.90;;;;;;5036397;28;20198;-80
2022/11/17 02:27:25;;;;;;;0.57;0.57;;;0.20;99.90;;;;;;5036589;28;20251;-79
2022/11/17 02:30:06;;;;;;;1.15;0.93;;;0.20;99.90;;;;;;5054510;28;20201;-79
2022/11/17 02:32:53;;;;;;;0.50;0.50;;;0.20;99.90;;;;;;5036454;28;20251;-80
2022/11/17 02:35:44;;;;;;;0.50;0.50;;;0.20;99.90;;;;;;5054549;28;20190;-80
2022/11/17 02:38:31;;;;;;;0.50;0.50;;;0.20;99.90;;;;;;5068123;28;20537;-80
2022/11/17 02:41:07;;;;;;;0.65;0.65;;;0.30;99.90;;;;;;5059923;28;20223;-80
2022/11/17 02:46:37;;;;;;;0.60;0.60;;;0.30;99.90;;;;;;5057937;28;20209;-80
2022/11/17 02:49:11;;;;;;;0.63;0.63;;;0.30;99.90;;;;;;5057803;28;20660;-79
2022/11/17 02:51:37;;;;;;;0.60;0.60;;;0.20;99.90;;;;;;5040112;28;20251;-80
2022/11/17 02:54:04;;;;;;;0.50;0.50;;;0.20;99.90;;;;;;5058686;28;20197;-80
2022/11/17 02:56:32;;;;;;;0.50;0.50;;;0.30;99.90;;;;;;5058931;28;20186;-81
2022/11/17 02:59:02;;;;;;;0.60;0.60;;;0.30;99.90;;;;;;5059010;28;20197;-80
2022/11/17 03:02:25;;;;;;;0.50;0.50;;;0.30;99.90;;;;;;5048210;28;20246;-79
2022/11/17 03:05:10;;;;;;;0.60;0.60;;;0.30;99.90;;;;;;5019471;28;20229;-79
2022/11/17 03:07:44;;;;;;;0.70;0.70;;;0.30;99.90;;;;;;5018758;28;20198;-80
2022/11/17 03:10:34;;;;;;;0.65;0.65;;;0.20;99.90;;;;;;5019329;28;20217;-80
2022/11/17 03:13:38;;;;;;;0.50;0.50;;;0.20;99.90;;;;;;5036630;28;20198;-81
2022/11/17 03:16:36;;;;;;;0.52;0.52;;;0.30;99.90;;;;;;5019206;28;20213;-80
2022/11/17 03:19:11;;;;;;;0.63;0.63;;;0.30;99.90;;;;;;5016425;28;20206;-80
2022/11/17 03:22:03;;;;;;;0.70;0.70;;;0.20;99.90;;;;;;4999541;28;20226;-80
2022/11/17 03:24:38;;;;;;;0.60;0.60;;;0.20;99.90;;;;;;5032407;28;20203;-80
2022/11/17 03:27:14;;;;;;;0.60;0.60;;;0.30;99.90;;;;;;5000985;28;20206;-79
2022/11/17 03:29:44;;;;;;;0.60;0.60;;;0.30;99.90;;;;;;4999765;28;20700;-79
2022/11/17 03:32:13;;;;;;;0.60;0.60;;;0.30;99.90;;;;;;5016520;28;20198;-79
2022/11/17 03:34:44;;;;;;;0.60;0.60;;;0.40;99.90;;;;;;5057174;28;20236;-80
2022/11/17 03:37:14;;;;;;;0.68;0.68;;;0.40;99.90;;;;;;5066702;28;20197;-80
2022/11/17 03:39:56;;;;;;;0.70;0.70;;;0.40;99.90;;;;;;5097942;28;20212;-79
2022/11/17 03:42:27;;;;;;;0.60;0.60;;;0.40;99.90;;;;;;5098250;28;20655;-80
2022/11/17 03:45:01;;;;;;;0.50;0.50;;;0.40;99.90;;;;;;5095782;28;20244;-78
2022/11/17 03:47:29;;;;;;;0.70;0.70;;;0.50;99.90;;;;;;5097961;28;20211;-78
2022/11/17 03:50:20;;;;;;;0.50;0.50;;;0.50;99.90;;;;;;5096859;28;20192;-79
2022/11/17 03:52:47;;;;;;;0.50;0.50;;;0.50;99.90;;;;;;5080133;28;20200;-79
2022/11/17 03:55:13;;;;;;;0.68;0.68;;;0.50;99.90;;;;;;5073005;28;20714;-78
2022/11/17 03:57:55;;;;;;;0.65;0.65;;;0.50;99.90;;;;;;5078642;28;20215;-79
2022/11/17 04:00:21;;;;;;;0.60;0.60;;;0.60;99.90;;;;;;5077884;28;20667;-79
2022/11/17 04:02:53;;;;;;;0.55;0.55;;;0.50;99.90;;;;;;5075210;28;20276;-79
2022/11/17 04:05:19;;;;;;;0.55;0.55;;;0.50;99.90;;;;;;5076637;28;20189;-79
2022/11/17 04:07:46;;;;;;;0.70;0.70;;;0.50;99.90;;;;;;5075792;28;20242;-79
2022/11/17 04:10:18;;;;;;;0.70;0.70;;;0.60;99.90;;;;;;5075445;28;20207;-79
2022/11/17 04:18:15;;;;;;;0.63;0.63;;;0.50;99.90;;;;;;5077334;28;20203;-79
2022/11/17 04:20:41;;;;;;;0.60;0.60;;;0.50;99.90;;;;;;5051233;28;20667;-78
2022/11/17 04:23:16;;;;;;;0.70;0.70;;;0.50;99.90;;;;;;5038166;28;20194;-79
2022/11/17 04:28:48;;;;;;;0.70;0.70;;;0.50;99.90;;;;;;4991008;28;20205;-78
2022/11/17 04:31:19;;;;;;;0.60;0.60;;;0.50;99.90;;;;;;5056568;28;20291;-78
2022/11/17 04:33:58;;;;;;;0.60;0.60;;;0.50;99.90;;;;;;5058015;28;20247;-79
2022/11/17 04:36:26;;;;;;;0.50;0.50;;;0.50;99.90;;;;;;5058077;28;20607;-79
2022/11/17 04:38:57;;;;;;;0.60;0.60;;;0.50;99.90;;;;;;5057569;28;20291;-79
2022/11/17 04:44:12;;;;;;;0.60;0.60;;;0.50;99.90;;;;;;5074689;28;20227;-78
2022/11/17 04:46:39;;;;;;;0.73;0.73;;;0.50;99.90;;;;;;5058745;28;20201;-78
2022/11/17 04:49:08;;;;;;;0.60;0.60;;;0.50;99.90;;;;;;5058818;28;20193;-79
2022/11/17 04:51:35;;;;;;;0.60;0.60;;;0.50;99.90;;;;;;5051134;28;20208;-77
2022/11/17 04:54:01;;;;;;;0.70;0.70;;;0.50;99.90;;;;;;5039032;28;20543;-78
2022/11/17 04:56:28;;;;;;;0.60;0.60;;;0.40;99.90;;;;;;5038367;28;20198;-78
2022/11/17 04:58:57;;;;;;;0.70;0.70;;;0.40;99.90;;;;;;5039334;28;20594;-78
2022/11/17 05:01:24;;;;;;;0.60;0.60;;;0.30;99.90;;;;;;5037951;28;20213;-79
2022/11/17 05:03:52;;;;;;;0.70;0.70;;;0.30;99.90;;;;;;5038860;28;20262;-79
2022/11/17 05:06:28;;;;;;;0.57;0.57;;;0.30;99.90;;;;;;5057907;28;20216;-81
2022/11/17 05:08:55;;;;;;;0.70;0.70;;;0.30;99.90;;;;;;5041040;28;20205;-78
2022/11/17 05:14:18;;;;;;;0.60;0.60;;;0.20;99.90;;;;;;5064567;28;20200;-79
2022/11/17 05:19:30;;;;;;;0.57;0.57;;;0.20;99.90;;;;;;5072744;28;20208;-79
2022/11/17 05:21:56;;;;;;;0.70;0.70;;;0.10;99.90;;;;;;5054760;28;20240;-79
2022/11/17 05:24:24;;;;;;;0.60;0.60;;;0.10;99.90;;;;;;5071757;28;20231;-79
2022/11/17 05:26:50;;;;;;;0.60;0.60;;;0.10;99.90;;;;;;5067549;28;20197;-79
2022/11/17 05:29:18;;;;;;;0.70;0.70;;;0.10;99.90;;;;;;5087769;28;20197;-79
2022/11/17 05:31:44;;;;;;;5.00;1.25;;;0.20;99.90;;;;;;5088534;28;20193;-79
2022/11/17 05:34:12;;;;;;;0.70;0.70;;;0.10;99.90;;;;;;5074298;28;20189;-81
2022/11/17 05:36:39;;;;;;;0.70;0.70;;;0.10;99.90;;;;;;5073997;28;20306;-80
2022/11/17 05:39:06;;;;;;;0.55;0.55;;;0.10;99.90;;;;;;5091153;28;20189;-79
2022/11/17 05:41:32;;;;;;;2.35;1.70;;;0.10;99.90;;;;;;5067507;28;20251;-78
2022/11/17 05:43:58;;;;;;;0.70;0.70;;;0.10;99.90;;;;;;5050175;28;20620;-79
2022/11/17 05:46:24;;;;;;;0.60;0.60;;;0.20;99.90;;;;;;5049501;28;20197;-79
2022/11/17 05:48:51;;;;;;;0.70;0.70;;;0.20;99.90;;;;;;5051227;28;20236;-79
2022/11/17 05:51:19;;;;;;;0.75;0.75;;;0.10;99.90;;;;;;5052384;28;20194;-79
2022/11/17 05:53:45;;;;;;;0.52;0.52;;;0.00;99.90;;;;;;5051708;28;20751;-79
2022/11/17 05:56:32;;;;;;;0.88;0.88;;;0.10;99.90;;;;;;5056017;28;20211;-79
2022/11/17 05:59:26;;;;;;;0.70;0.70;;;0.00;99.90;;;;;;5078886;28;20206;-79
2022/11/17 06:02:31;;;;;;;0.70;0.70;;;0.10;99.90;;;;;;5083667;28;20203;-79
2022/11/17 06:04:57;;;;;;;0.70;0.70;;;0.10;99.90;;;;;;5001588;28;20786;-79
2022/11/17 06:07:23;;;;;;;0.70;0.70;;;0.10;99.90;;;;;;5011324;28;20203;-79
2022/11/17 06:09:49;;;;;;;0.60;0.60;;;0.20;99.90;;;;;;5001836;28;20203;-79
2022/11/17 06:12:15;;;;;;;0.60;0.60;;;0.20;99.90;;;;;;5001916;28;20242;-79
2022/11/17 06:14:41;;;;;;;0.52;0.52;;;0.20;99.90;;;;;;5002174;28;20213;-79
2022/11/17 06:17:15;;;;;;;0.93;0.90;;;0.20;99.90;;;;;;5002179;28;20226;-80
2022/11/17 06:19:44;;;;;;;0.70;0.70;;;0.20;99.90;;;;;;5018277;28;20630;-79
2022/11/17 06:22:10;;;;;;;0.80;0.80;;;0.30;99.90;;;;;;5018246;28;20210;-79
2022/11/17 06:24:37;;;;;;;0.60;0.60;;;0.30;99.90;;;;;;5001481;28;20566;-79
2022/11/17 06:27:04;;;;;;;0.60;0.60;;;0.30;99.90;;;;;;5001299;28;20207;-79
2022/11/17 06:29:30;;;;;;;0.50;0.50;;;0.30;99.90;;;;;;5001002;28;20199;-79
2022/11/17 06:31:57;;;;;;;0.57;0.57;;;0.30;99.90;;;;;;5000624;28;20207;-79
2022/11/17 06:34:27;;;;;;;0.50;0.50;;;0.30;99.90;;;;;;5017386;28;20618;-79
2022/11/17 06:36:54;;;;;;;0.60;0.60;;;0.30;99.90;;;;;;5017102;28;20715;-79
2022/11/17 06:39:21;;;;;;;0.60;0.60;;;0.30;99.90;;;;;;5024292;28;20256;-80
2022/11/17 06:41:47;;;;;;;0.55;0.55;;;0.20;99.90;;;;;;5040937;28;20194;-79
2022/11/17 06:44:13;;;;;;;0.68;0.68;;;0.20;99.90;;;;;;5040615;28;20558;-79
2022/11/17 06:46:39;;;;;;;0.90;0.90;;;0.20;99.90;;;;;;5040787;28;20197;-79
2022/11/17 06:49:06;;;;;;;0.60;0.60;;;0.20;99.90;;;;;;5058338;28;20641;-79
2022/11/17 06:51:32;;;;;;;0.70;0.70;;;0.10;99.90;;;;;;5040065;28;20223;-79
2022/11/17 06:53:58;;;;;;;0.60;0.60;;;0.10;99.90;;;;;;5039687;28;20202;-79
2022/11/17 06:56:27;;;;;;;0.70;0.70;;;0.20;99.90;;;;;;5050483;28;20200;-79
2022/11/17 06:58:53;;;;;;;0.70;0.70;;;0.20;99.90;;;;;;5060033;28;20200;-78
2022/11/17 07:01:19;;;;;;;0.60;0.60;;;0.20;99.90;;;;;;5059609;28;20687;-79
2022/11/17 07:03:45;;;;;;;0.60;0.60;;;0.20;99.90;;;;;;5059535;28;20193;-79
2022/11/17 07:06:11;;;;;;;0.90;0.90;;;0.20;99.90;;;;;;5061390;28;20200;-79
2022/11/17 07:08:38;;;;;;;0.70;0.70;;;0.20;99.90;;;;;;5061056;28;20193;-80
2022/11/17 07:11:15;;;;;;;0.63;0.63;;;0.10;99.90;;;;;;5060280;28;20262;-79
2022/11/17 07:13:41;;;;;;;0.60;0.60;;;0.10;99.90;;;;;;5077739;28;20205;-79
2022/11/17 07:16:10;;;;;;;0.80;0.80;;;0.00;99.90;;;;;;5059965;28;20204;-79
2022/11/17 07:18:38;;;;;;;2.67;2.47;;;-0.10;99.90;;;;;;5051562;28;20548;-79
2022/11/17 07:21:05;;;;;;;0.93;0.93;;;-0.10;99.90;;;;;;5069186;28;20225;-79
2022/11/17 07:23:39;;;;;;;0.98;0.93;;;-0.10;99.90;;;;;;5058366;28;20200;-79
2022/11/17 07:26:06;;;;;;;0.85;0.85;;;0.00;99.90;;;;;;5081427;28;20197;-83
2022/11/17 07:28:33;;;;;;;0.90;0.90;;;0.00;99.90;;;;;;5103573;28;20199;-83
2022/11/17 07:31:06;;;;;;;0.90;0.90;;;0.00;99.90;;;;;;5093812;28;20215;-83
2022/11/17 07:33:33;;;;;;;1.20;1.00;;;0.00;99.90;;;;;;5066091;28;20192;-84
2022/11/17 07:36:09;;;;;;;0.60;0.60;;;0.00;99.90;;;;;;5065824;28;20216;-82
2022/11/17 07:38:37;;;;;;;0.80;0.80;;;0.10;99.90;;;;;;5083213;28;20216;-84
2022/11/17 07:41:03;;;;;;;0.50;0.50;;;0.10;99.90;;;;;;5061885;28;20247;-85
2022/11/17 07:43:29;;;;;;;0.70;0.70;;;0.20;99.90;;;;;;5044189;28;20266;-83
2022/11/17 07:45:57;;;;;;;0.60;0.60;;;0.30;99.90;;;;;;5060027;28;20245;-86
2022/11/17 07:48:23;;;;;;;0.75;0.75;;;0.30;99.90;;;;;;5045785;28;20233;-84
2022/11/17 07:50:50;;;;;;;0.70;0.70;;;0.30;99.90;;;;;;5063383;28;20280;-86
2022/11/17 07:53:16;;;;;;;1.00;0.90;;;0.40;99.90;;;;;;5045361;28;20201;-84
2022/11/17 07:55:42;;;;;;;0.70;0.70;;;0.40;99.90;;;;;;5046144;28;20292;-83
2022/11/17 07:58:08;;;;;;;0.70;0.70;;;0.30;99.90;;;;;;5045775;28;20281;-84
2022/11/17 08:00:39;;;;;;;0.50;0.50;;;0.40;99.90;;;;;;5076831;28;20237;-85
2022/11/17 08:03:05;;;;;;;0.57;0.57;;;0.40;99.90;;;;;;5066229;28;20230;-84
2022/11/17 08:05:34;;;;;;;0.70;0.70;;;0.40;99.90;;;;;;5082507;28;20188;-85
2022/11/17 08:08:00;;;;;;;0.60;0.60;;;0.50;99.90;;;;;;5065459;28;20216;-84
2022/11/17 08:10:29;;;;;;;0.63;0.63;;;0.50;99.90;;;;;;5065324;28;20220;-84
2022/11/17 08:12:56;;;;;;;0.68;0.68;;;0.60;99.90;;;;;;5083971;28;20211;-83
2022/11/17 08:15:22;;;;;;;0.90;0.90;;;0.60;99.90;;;;;;5083751;28;20254;-83
2022/11/17 08:17:58;;;;;;;0.57;0.57;;;0.60;99.90;;;;;;5065925;28;20201;-85
2022/11/17 08:20:36;;;;;;;0.65;0.65;;;0.70;99.90;;;;;;5065340;28;20228;-84
2022/11/17 08:23:02;;;;;;;0.60;0.60;;;0.70;99.90;;;;;;5065577;28;20246;-85
2022/11/17 08:25:28;;;;;;;0.70;0.70;;;0.70;99.90;;;;;;5065553;28;20197;-85
2022/11/17 08:27:57;;;;;;;0.50;0.50;;;0.80;99.90;;;;;;5064865;28;20200;-86
2022/11/17 08:30:27;;;;;;;0.80;0.80;;;0.90;99.90;;;;;;5066469;28;20203;-85
2022/11/17 08:32:53;;;;;;;0.70;0.70;;;1.00;99.90;;;;;;5065863;28;20235;-85
2022/11/17 08:35:21;;;;;;;0.68;0.68;;;1.00;99.90;;;;;;5064677;28;20204;-85
2022/11/17 08:37:47;;;;;;;0.82;0.82;;;0.90;99.90;;;;;;5047682;28;20661;-85
2022/11/17 08:40:14;;;;;;;0.60;0.60;;;1.00;99.90;;;;;;5045401;28;20217;-85
2022/11/17 08:42:39;;;;;;;0.68;0.68;;;0.90;99.90;;;;;;5045579;28;20287;-84
2022/11/17 08:45:06;;;;;;;0.60;0.60;;;0.90;99.90;;;;;;5062591;28;20241;-85
2022/11/17 08:47:33;;;;;;;0.60;0.60;;;1.00;99.90;;;;;;5045778;28;20679;-86
2022/11/17 08:49:58;;;;;;;0.60;0.60;;;0.90;99.90;;;;;;5045823;28;20229;-85
2022/11/17 08:52:26;;;;;;;0.60;0.60;;;0.90;99.90;;;;;;5045500;28;20228;-84
2022/11/17 08:54:52;;;;;;;0.55;0.55;;;0.80;99.90;;;;;;5049204;28;20208;-87
2022/11/17 08:57:20;;;;;;;0.85;0.80;;;0.80;99.90;;;;;;5047608;28;20264;-84
2022/11/17 09:00:04;;;;;;;0.80;0.80;;;0.80;99.90;;;;;;5048231;28;20270;-87
2022/11/17 09:02:30;;;;;;;0.82;0.82;;;0.80;99.90;;;;;;5063683;28;20197;-86
2022/11/17 09:04:59;;;;;;;0.70;0.70;;;0.90;99.90;;;;;;5046144;28;20549;-87
2022/11/17 09:07:25;;;;;;;0.65;0.65;;;0.90;99.90;;;;;;5045563;28;20194;-86
2022/11/17 09:09:51;;;;;;;0.65;0.65;;;1.10;99.90;;;;;;5046312;28;20202;-88
2022/11/17 09:12:17;;;;;;;0.60;0.60;;;1.10;99.90;;;;;;5081246;28;20190;-87
2022/11/17 09:14:43;;;;;;;0.73;0.73;;;1.10;99.90;;;;;;5066148;28;20275;-85
2022/11/17 09:17:09;;;;;;;0.63;0.63;;;1.20;99.90;;;;;;5066051;28;20248;-87
2022/11/17 09:19:34;;;;;;;0.60;0.60;;;1.40;99.90;;;;;;5084104;28;20201;-87
2022/11/17 09:22:00;;;;;;;0.65;0.65;;;1.50;99.90;;;;;;5094245;28;20227;-87
2022/11/17 09:24:26;;;;;;;0.50;0.50;;;1.50;99.90;;;;;;5105553;28;20222;-87
2022/11/17 09:26:53;;;;;;;0.60;0.60;;;1.50;99.90;;;;;;5106038;28;20198;-87
2022/11/17 09:29:20;;;;;;;0.70;0.70;;;1.40;99.90;;;;;;5105879;28;20262;-84
2022/11/17 09:31:46;;;;;;;1.73;1.40;;;1.40;99.90;;;;;;5105854;28;20215;-86
2022/11/17 09:34:12;;;;;;;0.70;0.70;;;1.40;99.90;;;;;;5088065;28;20203;-86
2022/11/17 09:36:38;;;;;;;0.50;0.50;;;1.40;99.90;;;;;;5085243;28;20200;-86
2022/11/17 09:39:03;;;;;;;0.60;0.60;;;1.30;99.90;;;;;;5086887;28;20222;-86
2022/11/17 09:41:45;;;;;;;0.70;0.70;;;1.30;99.90;;;;;;5104884;28;20263;-86
2022/11/17 09:44:21;;;;;;;0.70;0.70;;;1.30;99.90;;;;;;5104988;28;20240;-87
2022/11/17 09:47:05;;;;;;;0.50;0.50;;;1.30;99.90;;;;;;5120614;28;20195;-86
2022/11/17 09:49:59;;;;;;;0.70;0.70;;;1.40;99.90;;;;;;5090179;28;20192;-87
2022/11/17 09:52:52;;;;;;;0.63;0.63;;;1.50;99.90;;;;;;5106338;28;20278;-85
2022/11/17 09:55:34;;;;;;;0.60;0.60;;;1.50;99.90;;;;;;5090265;28;20249;-84
2022/11/17 09:58:12;;;;;;;0.70;0.70;;;1.60;99.90;;;;;;5090310;28;20208;-87
2022/11/17 10:00:40;;;;;;;0.65;0.65;;;1.60;99.90;;;;;;5090560;28;20243;-86
2022/11/17 10:03:52;;;;;;;0.70;0.70;;;1.60;99.90;;;;;;5089227;28;20188;-87
2022/11/17 10:06:29;;;;;;;0.60;0.60;;;1.60;99.90;;;;;;5110716;28;20190;-85
2022/11/17 10:09:25;;;;;;;0.50;0.50;;;1.70;99.90;;;;;;5087048;28;20192;-86
2022/11/17 10:12:02;;;;;;;0.80;0.80;;;1.60;99.90;;;;;;5076466;28;20216;-85
2022/11/17 10:14:29;;;;;;;0.70;0.70;;;1.60;99.90;;;;;;5069115;28;20556;-87
2022/11/17 10:17:00;;;;;;;0.70;0.70;;;1.60;99.90;;;;;;5116727;28;20195;-87
2022/11/17 10:19:33;;;;;;;0.93;0.93;;;1.70;99.90;;;;;;5126971;28;20194;-87
2022/11/17 10:22:16;;;;;;;1.20;1.10;;;1.80;99.90;;;;;;5125914;28;20227;-87
2022/11/17 10:24:54;;;;;;;0.70;0.70;;;1.80;99.90;;;;;;5109633;28;20267;-86
2022/11/17 10:27:27;;;;;;;0.63;0.63;;;1.80;99.90;;;;;;5127067;28;20211;-85
2022/11/17 10:29:56;;;;;;;0.60;0.60;;;1.80;99.90;;;;;;5094779;28;20669;-85
2022/11/17 10:32:22;;;;;;;0.60;0.60;;;1.90;99.90;;;;;;5087227;28;20196;-85
2022/11/17 10:34:48;;;;;;;0.60;0.60;;;1.80;99.90;;;;;;5088359;28;20639;-88
2022/11/17 10:37:16;;;;;;;0.65;0.65;;;1.90;99.90;;;;;;5088634;28;20196;-87
2022/11/17 10:39:46;;;;;;;0.50;0.50;;;1.80;99.90;;;;;;5088675;28;20257;-88
2022/11/17 10:42:26;;;;;;;0.50;0.50;;;1.90;99.90;;;;;;5088760;28;20198;-87
2022/11/17 10:44:56;;;;;;;0.70;0.70;;;1.90;99.90;;;;;;5085405;28;20644;-87
2022/11/17 10:47:30;;;;;;;0.60;0.60;;;1.90;99.90;;;;;;5069280;28;20189;-86
2022/11/17 10:50:26;;;;;;;0.40;0.40;;;1.90;99.90;;;;;;5087560;28;20239;-88
2022/11/17 10:53:13;;;;;;;0.68;0.68;;;1.90;99.90;;;;;;5101082;28;20222;-87
2022/11/17 10:55:39;;;;;;;0.63;0.63;;;1.90;99.90;;;;;;5109163;28;20228;-87
2022/11/17 10:58:23;;;;;;;0.60;0.60;;;1.90;99.90;;;;;;5109705;28;20260;-88
2022/11/17 11:00:55;;;;;;;0.98;0.98;;;1.80;99.90;;;;;;5108576;28;20212;-87
2022/11/17 11:03:29;;;;;;;0.98;0.93;;;1.90;99.90;;;;;;5110113;28;20191;-86
2022/11/17 11:06:02;;;;;;;0.60;0.60;;;1.90;99.90;;;;;;5109269;28;20263;-89
2022/11/17 11:08:39;;;;;;;0.50;0.50;;;1.90;99.90;;;;;;5110082;28;20202;-86
2022/11/17 11:11:14;;;;;;;0.68;0.68;;;2.00;99.90;;;;;;5106951;28;20191;-89
2022/11/17 11:13:55;;;;;;;0.70;0.70;;;2.00;99.90;;;;;;5106431;28;20624;-85
2022/11/17 11:16:21;;;;;;;1.00;1.00;;;2.00;99.90;;;;;;5088528;28;20196;-86
2022/11/17 11:18:49;;;;;;;0.60;0.60;;;2.00;99.90;;;;;;5088426;28;20204;-87
2022/11/17 11:21:33;;;;;;;0.75;0.75;;;2.00;99.90;;;;;;5079082;28;20229;-88
2022/11/17 11:24:29;;;;;;;0.70;0.70;;;2.00;99.90;;;;;;5067852;28;20197;-88
2022/11/17 11:27:35;;;;;;;0.75;0.75;;;2.10;99.90;;;;;;5048022;28;20197;-89
2022/11/17 11:30:05;;;;;;;0.60;0.60;;;2.10;99.90;;;;;;5070266;28;20193;-80
2022/11/17 11:32:47;;;;;;;0.60;0.60;;;2.10;99.90;;;;;;5041275;28;20251;-78
2022/11/17 11:35:50;;;;;;;0.60;0.60;;;2.10;99.90;;;;;;5047774;28;20197;-89
2022/11/17 11:38:56;;;;;;;0.60;0.60;;;2.10;99.90;;;;;;5065243;28;20563;-87
2022/11/17 11:41:25;;;;;;;0.52;0.52;;;2.10;99.90;;;;;;5047937;28;20240;-85
2022/11/17 11:44:20;;;;;;;0.63;0.63;;;2.10;99.90;;;;;;5053188;28;20212;-85
2022/11/17 11:47:23;;;;;;;0.50;0.50;;;2.00;99.90;;;;;;5045139;28;20205;-80
2022/11/17 11:50:04;;;;;;;0.60;0.60;;;2.10;99.90;;;;;;5066327;28;20200;-87
2022/11/17 11:52:35;;;;;;;0.70;0.70;;;2.10;99.90;;;;;;5088122;28;20202;-87
2022/11/17 11:55:05;;;;;;;0.60;0.60;;;2.20;99.90;;;;;;5088366;28;20636;-87
2022/11/17 11:58:02;;;;;;;0.60;0.60;;;2.20;99.90;;;;;;5087886;28;20210;-86
2022/11/17 12:00:28;;;;;;;0.50;0.50;;;2.20;99.90;;;;;;5075803;28;20216;-87
2022/11/17 12:06:41;;;;;;;0.50;0.50;;;2.30;99.90;;;;;;5085293;28;20200;-85
2022/11/17 12:09:25;;;;;;;0.57;0.57;;;2.30;99.90;;;;;;5036634;28;20197;-86
2022/11/17 12:12:01;;;;;;;0.60;0.60;;;2.30;99.90;;;;;;5071102;28;20292;-85
2022/11/17 12:14:35;;;;;;;0.70;0.70;;;2.20;99.90;;;;;;5070051;28;20199;-87
2022/11/17 12:17:22;;;;;;;0.60;0.60;;;2.20;99.90;;;;;;5068870;28;20672;-85
2022/11/17 12:19:58;;;;;;;0.70;0.70;;;2.20;99.90;;;;;;5086181;28;20209;-86
2022/11/17 12:22:32;;;;;;;0.70;0.70;;;2.20;99.90;;;;;;5059528;28;20224;-85
2022/11/17 12:25:04;;;;;;;0.70;0.70;;;2.20;99.90;;;;;;5065494;28;20211;-84
2022/11/17 12:27:34;;;;;;;0.60;0.60;;;2.20;99.90;;;;;;5047125;28;20208;-84
2022/11/17 12:30:24;;;;;;;0.60;0.60;;;2.10;99.90;;;;;;5065247;28;20618;-86
2022/11/17 12:32:52;;;;;;;0.60;0.60;;;2.20;99.90;;;;;;5048462;28;20194;-86
2022/11/17 12:35:29;;;;;;;0.50;0.50;;;2.10;99.90;;;;;;5048166;28;20198;-84
2022/11/17 12:38:14;;;;;;;0.60;0.60;;;2.10;99.90;;;;;;5047943;28;20177;-86
2022/11/17 12:40:51;;;;;;;0.60;0.60;;;2.00;99.90;;;;;;5077488;28;20210;-86
2022/11/17 12:43:30;;;;;;;0.50;0.50;;;2.00;99.90;;;;;;5072860;28;20195;-81
2022/11/17 12:46:07;;;;;;;0.60;0.60;;;2.10;99.90;;;;;;5059233;28;20193;-77
2022/11/17 12:48:34;;;;;;;0.70;0.70;;;2.10;99.90;;;;;;5046390;28;20687;-78
2022/11/17 12:51:22;;;;;;;0.70;0.70;;;2.20;99.90;;;;;;5047872;28;20197;-78
2022/11/17 12:54:19;;;;;;;;;;;;;;;;;;;;;
2022/11/17 12:57:15;;;;;;;0.52;0.52;;;2.10;99.90;;;;;;5076503;28;20263;-77
2022/11/17 13:00:06;;;;;;;0.50;0.50;;;2.10;99.90;;;;;;5067416;28;20235;-78
2022/11/17 13:03:05;;;;;;;0.60;0.60;;;2.00;99.90;;;;;;5063401;28;20592;-78
2022/11/17 13:05:34;;;;;;;0.68;0.68;;;2.00;99.90;;;;;;5064117;28;20193;-78
2022/11/17 13:08:12;;;;;;;0.60;0.60;;;2.00;99.90;;;;;;5081794;28;20273;-79
2022/11/17 13:10:38;;;;;;;0.57;0.57;;;2.10;99.90;;;;;;5064408;28;20193;-77
2022/11/17 13:13:22;;;;;;;0.60;0.60;;;2.10;99.90;;;;;;5062832;28;20754;-78
2022/11/17 13:15:59;;;;;;;0.57;0.57;;;2.10;99.90;;;;;;5080771;28;20674;-78
2022/11/17 13:18:25;;;;;;;0.60;0.60;;;2.10;99.90;;;;;;5063216;28;20228;-77
2022/11/17 13:20:53;;;;;;;0.70;0.70;;;2.10;99.90;;;;;;5064471;28;20255;-78
2022/11/17 13:23:24;;;;;;;0.60;0.60;;;2.10;99.90;;;;;;5064525;28;20192;-80
2022/11/17 13:26:06;;;;;;;0.70;0.70;;;2.00;99.90;;;;;;5064880;28;20245;-79
2022/11/17 13:28:32;;;;;;;0.82;0.82;;;2.00;99.90;;;;;;5080315;28;20196;-78
2022/11/17 13:30:59;;;;;;;0.60;0.60;;;2.00;99.90;;;;;;5060349;28;20200;-78
2022/11/17 13:33:29;;;;;;;0.50;0.50;;;2.00;99.90;;;;;;5059447;28;20197;-78
2022/11/17 13:36:27;;;;;;;0.68;0.68;;;2.00;99.90;;;;;;5077877;28;20545;-77
2022/11/17 13:38:59;;;;;;;6.97;3.50;;;2.00;99.90;;;;;;5028386;28;20688;-78
2022/11/17 13:41:36;;;;;;;0.60;0.60;;;1.90;99.90;;;;;;5060882;28;20300;-78
2022/11/17 13:44:02;;;;;;;0.55;0.55;;;1.90;99.90;;;;;;5058635;28;20192;-78
2022/11/17 13:46:28;;;;;;;0.63;0.63;;;1.90;99.90;;;;;;5039271;28;20193;-80
2022/11/17 13:48:54;;;;;;;0.60;0.60;;;1.80;99.90;;;;;;5039660;28;20284;-79
2022/11/17 13:51:37;;;;;;;0.60;0.60;;;1.70;99.90;;;;;;5056700;28;20591;-81
2022/11/17 13:54:14;;;;;;;0.52;0.52;;;1.70;99.90;;;;;;5057185;28;20197;-79
2022/11/17 13:56:56;;;;;;;0.60;0.60;;;1.70;99.90;;;;;;5059965;28;20209;-80